createdAt,value
2018-07-09T00:03:35.955Z,17.30
2018-07-09T00:06:04.584Z,17.20
2018-07-09T00:08:33.996Z,17.20
2018-07-09T00:11:04.705Z,17.10
2018-07-09T00:13:35.210Z,17.00
2018-07-09T00:16:04.799Z,17.00
2018-07-09T00:18:34.418Z,17.00
2018-07-09T00:23:33.012Z,16.90
2018-07-09T00:26:02.412Z,16.80
2018-07-09T00:28:31.588Z,16.80
2018-07-09T00:31:00.140Z,16.80
2018-07-09T00:33:28.735Z,16.80
2018-07-09T00:35:57.325Z,16.80
2018-07-09T00:38:25.850Z,16.80
2018-07-09T00:43:22.733Z,16.80
2018-07-09T00:45:51.246Z,16.80
2018-07-09T00:48:19.926Z,16.80
2018-07-09T00:50:48.453Z,16.80
2018-07-09T00:55:45.299Z,16.80
2018-07-09T00:58:13.856Z,16.80
2018-07-09T01:00:42.427Z,16.70
2018-07-09T01:03:10.969Z,16.70
2018-07-09T01:05:39.581Z,16.70
2018-07-09T01:08:08.132Z,16.70
2018-07-09T01:10:46.677Z,16.70
2018-07-09T01:13:15.235Z,16.70
2018-07-09T01:15:43.842Z,16.70
2018-07-09T01:18:12.354Z,16.70
2018-07-09T01:20:41.026Z,16.70
2018-07-09T01:23:09.570Z,16.70
2018-07-09T01:28:06.428Z,16.70
2018-07-09T01:33:04.236Z,16.70
2018-07-09T01:35:33.524Z,16.70
2018-07-09T01:38:02.891Z,16.70
2018-07-09T01:40:32.310Z,16.70
2018-07-09T01:45:29.123Z,16.70
2018-07-09T01:47:57.649Z,16.70
2018-07-09T01:55:22.753Z,16.60
2018-07-09T01:57:51.308Z,16.60
2018-07-09T02:00:19.860Z,16.60
2018-07-09T02:05:16.691Z,16.50
2018-07-09T02:07:45.257Z,16.40
2018-07-09T02:10:13.821Z,16.40
2018-07-09T02:12:42.411Z,16.40
2018-07-09T02:15:10.989Z,16.30
2018-07-09T02:17:39.582Z,16.30
2018-07-09T02:20:08.140Z,16.20
2018-07-09T02:22:36.697Z,16.20
2018-07-09T02:25:05.304Z,16.20
2018-07-09T02:27:34.786Z,16.20
2018-07-09T02:30:03.381Z,16.10
2018-07-09T02:32:32.943Z,16.10
2018-07-09T02:35:02.337Z,16.00
2018-07-09T02:37:31.631Z,16.00
2018-07-09T02:40:00.206Z,16.00
2018-07-09T02:42:28.809Z,15.90
2018-07-09T02:44:57.349Z,15.90
2018-07-09T02:47:25.943Z,15.90
2018-07-09T02:49:54.542Z,15.90
2018-07-09T02:52:23.068Z,15.90
2018-07-09T02:54:51.630Z,15.80
2018-07-09T02:57:20.145Z,15.80
2018-07-09T02:59:48.706Z,15.70
2018-07-09T03:04:45.536Z,15.60
2018-07-09T03:07:14.076Z,15.50
2018-07-09T03:09:42.601Z,15.50
2018-07-09T03:12:11.170Z,15.40
2018-07-09T03:14:39.787Z,15.40
2018-07-09T03:17:08.323Z,15.40
2018-07-09T03:19:36.912Z,15.40
2018-07-09T03:22:05.523Z,15.40
2018-07-09T03:24:34.897Z,15.30
2018-07-09T03:27:04.280Z,15.30
2018-07-09T03:29:33.657Z,15.30
2018-07-09T03:34:31.370Z,15.30
2018-07-09T03:36:59.972Z,15.30
2018-07-09T03:39:28.489Z,15.30
2018-07-09T03:41:57.004Z,15.30
2018-07-09T03:44:25.608Z,15.30
2018-07-09T03:46:54.195Z,15.30
2018-07-09T03:49:22.789Z,15.40
2018-07-09T03:51:51.306Z,15.40
2018-07-09T03:54:19.876Z,15.40
2018-07-09T03:56:48.379Z,15.40
2018-07-09T04:01:45.203Z,15.40
2018-07-09T04:04:13.736Z,15.40
2018-07-09T04:06:42.499Z,15.40
2018-07-09T04:11:39.304Z,15.50
2018-07-09T04:14:08.029Z,15.50
2018-07-09T04:16:36.755Z,15.60
2018-07-09T04:19:05.321Z,15.60
2018-07-09T04:24:02.700Z,15.80
2018-07-09T04:26:31.687Z,15.80
2018-07-09T04:31:28.507Z,16.00
2018-07-09T04:33:57.051Z,16.10
2018-07-09T04:36:25.572Z,16.10
2018-07-09T04:38:54.141Z,16.20
2018-07-09T04:41:22.713Z,16.30
2018-07-09T04:43:51.259Z,16.40
2018-07-09T04:46:19.861Z,16.50
2018-07-09T04:48:48.416Z,16.50
2018-07-09T04:53:45.229Z,16.70
2018-07-09T04:56:13.761Z,16.80
2018-07-09T05:01:10.607Z,16.90
2018-07-09T05:03:39.161Z,17.00
2018-07-09T05:06:07.706Z,17.10
2018-07-09T05:08:36.384Z,17.20
2018-07-09T05:11:04.947Z,17.30
2018-07-09T05:13:34.299Z,17.40
2018-07-09T05:16:04.368Z,17.50
2018-07-09T05:21:02.865Z,17.60
2018-07-09T05:23:32.029Z,17.70
2018-07-09T05:26:00.595Z,17.70
2018-07-09T05:28:29.139Z,17.80
2018-07-09T05:30:57.876Z,17.80
2018-07-09T05:33:26.383Z,18.00
2018-07-09T05:35:54.965Z,18.10
2018-07-09T05:38:23.642Z,18.20
2018-07-09T05:40:52.191Z,18.40
2018-07-09T05:43:20.845Z,18.40
2018-07-09T05:45:49.618Z,18.50
2018-07-09T05:50:46.513Z,18.60
2018-07-09T05:53:15.091Z,18.50
2018-07-09T05:55:43.640Z,18.40
2018-07-09T06:00:40.552Z,18.50
2018-07-09T06:03:09.109Z,18.50
2018-07-09T06:05:37.810Z,18.60
2018-07-09T06:13:03.544Z,18.80
2018-07-09T06:15:32.919Z,18.90
2018-07-09T06:18:02.453Z,19.00
2018-07-09T06:20:31.679Z,19.10
2018-07-09T06:23:00.289Z,19.20
2018-07-09T06:25:28.949Z,19.30
2018-07-09T06:27:57.525Z,19.40
2018-07-09T06:30:27.210Z,19.60
2018-07-09T06:32:55.887Z,19.60
2018-07-09T06:37:53.009Z,19.80
2018-07-09T06:40:21.617Z,19.90
2018-07-09T06:42:50.178Z,20.00
2018-07-09T06:45:18.754Z,20.10
2018-07-09T06:47:47.326Z,20.20
2018-07-09T06:50:16.031Z,20.20
2018-07-09T06:52:44.599Z,20.20
2018-07-09T06:55:13.182Z,20.10
2018-07-09T06:57:41.798Z,20.00
2018-07-09T07:00:10.364Z,20.00
2018-07-09T07:02:38.986Z,20.00
2018-07-09T07:05:08.242Z,20.10
2018-07-09T07:07:36.843Z,20.20
2018-07-09T07:10:05.525Z,20.20
2018-07-09T07:12:34.758Z,20.20
2018-07-09T07:15:03.472Z,20.10
2018-07-09T07:17:32.841Z,20.00
2018-07-09T07:20:01.446Z,20.20
2018-07-09T07:22:32.950Z,20.40
2018-07-09T07:25:02.454Z,20.50
2018-07-09T07:27:31.736Z,20.70
2018-07-09T07:30:00.816Z,21.00
2018-07-09T07:32:29.391Z,21.20
2018-07-09T07:34:57.943Z,21.30
2018-07-09T07:37:26.509Z,21.30
2018-07-09T07:42:23.445Z,21.20
2018-07-09T07:44:52.031Z,21.30
2018-07-09T07:47:20.680Z,21.40
2018-07-09T07:49:49.266Z,21.40
2018-07-09T07:52:18.734Z,21.40
2018-07-09T07:54:47.362Z,21.60
2018-07-09T07:57:16.116Z,21.80
2018-07-09T07:59:44.909Z,21.80
2018-07-09T08:02:13.623Z,21.70
2018-07-09T08:04:42.378Z,21.50
2018-07-09T08:07:10.911Z,21.20
2018-07-09T08:09:39.512Z,21.00
2018-07-09T08:13:00.556Z,21.00
2018-07-09T08:14:38.805Z,21.10
2018-07-09T08:17:07.701Z,21.20
2018-07-09T08:19:36.449Z,21.40
2018-07-09T08:22:05.291Z,21.60
2018-07-09T08:24:34.527Z,21.80
2018-07-09T08:27:04.752Z,22.00
2018-07-09T08:29:35.669Z,22.30
2018-07-09T08:34:33.705Z,22.80
2018-07-09T08:37:02.504Z,22.90
2018-07-09T08:39:34.925Z,22.80
2018-07-09T08:42:04.542Z,22.80
2018-07-09T08:44:33.683Z,22.50
2018-07-09T08:47:03.145Z,22.30
2018-07-09T08:49:32.145Z,22.40
2018-07-09T08:52:00.867Z,22.50
2018-07-09T08:54:29.558Z,22.60
2018-07-09T08:56:58.455Z,22.80
2018-07-09T08:59:27.089Z,23.10
2018-07-09T09:01:55.903Z,23.60
2018-07-09T09:04:24.675Z,24.10
2018-07-09T09:06:54.423Z,24.60
2018-07-09T09:09:23.184Z,24.80
2018-07-09T09:11:52.124Z,24.80
2018-07-09T09:14:24.873Z,24.80
2018-07-09T09:19:22.526Z,24.20
2018-07-09T09:21:51.237Z,23.80
2018-07-09T09:24:20.145Z,23.60
2018-07-09T09:26:48.799Z,23.40
2018-07-09T09:29:17.552Z,23.20
2018-07-09T09:31:46.312Z,23.10
2018-07-09T09:34:15.063Z,23.00
2018-07-09T09:36:43.872Z,23.00
2018-07-09T09:39:12.611Z,23.00
2018-07-09T09:41:41.401Z,22.90
2018-07-09T09:44:10.125Z,22.90
2018-07-09T09:46:39.285Z,22.90
2018-07-09T09:49:08.070Z,22.80
2018-07-09T09:51:36.799Z,22.50
2018-07-09T09:54:05.709Z,22.40
2018-07-09T09:56:34.840Z,22.30
2018-07-09T09:59:04.222Z,22.10
2018-07-09T10:04:01.994Z,21.70
2018-07-09T10:08:59.026Z,21.40
2018-07-09T10:11:27.659Z,21.40
2018-07-09T10:16:24.603Z,21.50
2018-07-09T10:18:53.206Z,21.50
2018-07-09T10:23:50.255Z,21.50
2018-07-09T10:28:47.156Z,21.60
2018-07-09T10:31:15.903Z,21.60
2018-07-09T10:36:12.860Z,21.80
2018-07-09T10:38:43.524Z,22.00
2018-07-09T10:41:12.408Z,22.10
2018-07-09T10:43:41.081Z,22.10
2018-07-09T10:48:38.215Z,22.10
2018-07-09T10:51:07.051Z,22.20
2018-07-09T10:53:35.722Z,22.20
2018-07-09T10:56:05.316Z,22.20
2018-07-09T11:01:02.914Z,22.40
2018-07-09T11:03:32.667Z,22.50
2018-07-09T11:06:01.476Z,22.50
2018-07-09T11:08:30.134Z,22.50
2018-07-09T11:13:27.096Z,22.60
2018-07-09T11:15:57.340Z,22.60
2018-07-09T11:18:26.188Z,22.50
2018-07-09T11:20:55.059Z,22.60
2018-07-09T11:23:23.711Z,22.50
2018-07-09T11:25:52.433Z,22.50
2018-07-09T11:28:21.111Z,22.50
2018-07-09T11:33:18.047Z,22.70
2018-07-09T11:35:46.654Z,22.80
2018-07-09T11:40:44.039Z,23.10
2018-07-09T11:43:12.789Z,23.30
2018-07-09T11:45:41.339Z,23.60
2018-07-09T11:48:09.954Z,23.80
2018-07-09T11:50:38.629Z,24.10
2018-07-09T11:53:07.291Z,24.40
2018-07-09T11:55:35.943Z,24.60
2018-07-09T11:58:04.979Z,24.70
2018-07-09T12:00:34.006Z,24.70
2018-07-09T12:03:03.517Z,24.60
2018-07-09T12:08:01.498Z,24.60
2018-07-09T12:10:30.254Z,24.70
2018-07-09T12:12:58.885Z,24.80
2018-07-09T12:15:27.778Z,24.90
2018-07-09T12:17:56.479Z,24.80
2018-07-09T12:20:25.213Z,24.80
2018-07-09T12:22:53.965Z,24.70
2018-07-09T12:25:22.647Z,24.80
2018-07-09T12:27:51.802Z,24.90
2018-07-09T12:30:22.099Z,24.90
2018-07-09T12:32:51.241Z,24.80
2018-07-09T12:35:19.981Z,24.70
2018-07-09T12:37:48.781Z,24.60
2018-07-09T12:40:17.584Z,24.60
2018-07-09T12:42:47.606Z,24.50
2018-07-09T12:45:18.271Z,24.40
2018-07-09T12:47:47.757Z,24.20
2018-07-09T12:50:17.845Z,24.00
2018-07-09T12:52:48.241Z,24.00
2018-07-09T12:55:17.284Z,24.10
2018-07-09T13:00:14.844Z,24.00
2018-07-09T13:02:43.726Z,23.90
2018-07-09T13:05:16.774Z,24.00
2018-07-09T13:07:46.636Z,23.90
2018-07-09T13:10:15.508Z,23.80
2018-07-09T13:12:44.211Z,23.80
2018-07-09T13:15:12.931Z,24.10
2018-07-09T13:17:41.608Z,24.50
2018-07-09T13:20:10.398Z,24.70
2018-07-09T13:22:39.236Z,24.80
2018-07-09T13:25:09.009Z,25.00
2018-07-09T13:27:38.757Z,25.00
2018-07-09T13:30:07.447Z,25.10
2018-07-09T13:32:36.245Z,25.30
2018-07-09T13:35:05.084Z,25.30
2018-07-09T13:37:34.434Z,25.40
2018-07-09T13:40:04.248Z,25.30
2018-07-09T13:42:33.798Z,25.10
2018-07-09T13:45:03.336Z,24.70
2018-07-09T13:47:32.406Z,24.50
2018-07-09T13:50:01.969Z,24.40
2018-07-09T13:52:30.948Z,24.60
2018-07-09T13:54:59.790Z,24.80
2018-07-09T13:57:28.522Z,25.10
2018-07-09T13:59:57.160Z,25.40
2018-07-09T14:02:26.323Z,25.60
2018-07-09T14:04:55.042Z,25.80
2018-07-09T14:07:23.827Z,25.90
2018-07-09T14:09:52.497Z,26.00
2018-07-09T14:14:49.745Z,26.10
2018-07-09T14:20:25.616Z,25.90
2018-07-09T14:22:54.415Z,25.60
2018-07-09T14:25:23.297Z,25.50
2018-07-09T14:27:52.769Z,25.20
2018-07-09T14:30:22.431Z,24.90
2018-07-09T14:32:51.618Z,24.80
2018-07-09T14:35:20.310Z,24.80
2018-07-09T14:40:18.437Z,24.80
2018-07-09T14:42:48.164Z,24.80
2018-07-09T14:45:17.055Z,24.60
2018-07-09T14:47:45.801Z,24.40
2018-07-09T14:50:14.554Z,24.60
2018-07-09T14:52:43.924Z,25.00
2018-07-09T14:55:12.640Z,25.00
2018-07-09T14:57:41.223Z,24.80
2018-07-09T15:00:09.947Z,24.60
2018-07-09T15:05:07.015Z,24.40
2018-07-09T15:07:35.653Z,24.40
2018-07-09T15:10:04.993Z,24.40
2018-07-09T15:15:02.972Z,24.40
2018-07-09T15:20:00.200Z,24.60
2018-07-09T15:22:28.855Z,24.60
2018-07-09T15:24:57.569Z,24.60
2018-07-09T15:27:26.330Z,24.60
2018-07-09T15:29:54.903Z,24.60
2018-07-09T15:32:28.091Z,24.60
2018-07-09T15:34:56.929Z,24.60
2018-07-09T15:37:25.880Z,24.60
2018-07-09T15:39:55.686Z,24.60
2018-07-09T15:42:24.706Z,24.60
2018-07-09T15:47:22.688Z,24.50
2018-07-09T15:49:51.688Z,24.40
2018-07-09T15:52:20.661Z,24.40
2018-07-09T15:54:49.370Z,24.40
2018-07-09T15:57:18.342Z,24.50
2018-07-09T15:59:47.043Z,24.40
2018-07-09T16:02:16.379Z,24.40
2018-07-09T16:04:45.557Z,24.40
2018-07-09T16:07:14.649Z,24.30
2018-07-09T16:09:43.906Z,24.30
2018-07-09T16:12:12.713Z,24.30
2018-07-09T16:14:41.415Z,24.20
2018-07-09T16:17:10.319Z,24.10
2018-07-09T16:19:39.569Z,24.00
2018-07-09T16:22:08.465Z,23.90
2018-07-09T16:24:37.196Z,23.80
2018-07-09T16:27:05.936Z,23.70
2018-07-09T16:29:35.067Z,23.70
2018-07-09T16:32:04.777Z,23.70
2018-07-09T16:34:34.025Z,23.80
2018-07-09T16:37:04.009Z,24.00
2018-07-09T16:39:33.874Z,24.10
2018-07-09T16:42:03.243Z,24.20
2018-07-09T16:44:33.005Z,24.20
2018-07-09T16:47:02.376Z,24.30
2018-07-09T16:49:31.932Z,24.20
2018-07-09T16:52:00.687Z,24.30
2018-07-09T16:54:29.287Z,24.30
2018-07-09T16:56:58.105Z,24.40
2018-07-09T16:59:28.655Z,24.40
2018-07-09T17:01:57.546Z,24.30
2018-07-09T17:04:27.463Z,24.20
2018-07-09T17:06:56.906Z,24.10
2018-07-09T17:09:25.628Z,24.10
2018-07-09T17:11:55.129Z,23.90
2018-07-09T17:14:24.586Z,23.80
2018-07-09T17:16:53.195Z,23.70
2018-07-09T17:19:21.718Z,23.60
2018-07-09T17:21:50.276Z,23.50
2018-07-09T17:24:18.840Z,23.30
2018-07-09T17:26:47.520Z,23.20
2018-07-09T17:31:44.267Z,22.90
2018-07-09T17:34:13.060Z,22.80
2018-07-09T17:36:41.792Z,22.80
2018-07-09T17:39:12.608Z,22.80
2018-07-09T17:41:43.244Z,22.70
2018-07-09T17:44:11.919Z,22.60
2018-07-09T17:46:41.039Z,22.50
2018-07-09T17:49:10.066Z,22.40
2018-07-09T17:51:38.965Z,22.20
2018-07-09T17:54:07.947Z,22.00
2018-07-09T17:56:36.675Z,21.80
2018-07-09T17:59:06.192Z,21.60
2018-07-09T18:01:35.293Z,21.40
2018-07-09T18:04:04.505Z,21.30
2018-07-09T18:06:34.318Z,21.10
2018-07-09T18:09:04.200Z,20.90
2018-07-09T18:11:33.923Z,20.80
2018-07-09T18:14:03.624Z,20.60
2018-07-09T18:19:02.086Z,20.40
2018-07-09T18:21:31.442Z,20.30
2018-07-09T18:24:00.378Z,20.20
2018-07-09T18:26:29.477Z,20.10
2018-07-09T18:28:58.373Z,19.90
2018-07-09T18:31:27.227Z,19.80
2018-07-09T18:33:56.193Z,19.70
2018-07-09T18:36:24.924Z,19.60
2018-07-09T18:38:53.755Z,19.50
2018-07-09T18:41:23.295Z,19.40
2018-07-09T18:43:54.661Z,19.30
2018-07-09T18:46:25.588Z,19.20
2018-07-09T18:51:41.916Z,19.00
2018-07-09T18:54:11.122Z,18.90
2018-07-09T18:56:55.602Z,18.80
2018-07-09T18:59:30.082Z,18.80
2018-07-09T19:02:01.393Z,18.70
2018-07-09T19:04:36.088Z,18.70
2018-07-09T19:07:17.842Z,18.60
2018-07-09T19:09:54.984Z,18.50
2018-07-09T19:12:24.561Z,18.50
2018-07-09T19:14:53.568Z,18.40
2018-07-09T19:20:34.936Z,18.20
2018-07-09T19:23:02.870Z,18.10
2018-07-09T19:25:30.588Z,18.10
2018-07-09T19:27:59.327Z,18.10
2018-07-09T19:30:27.219Z,18.00
2018-07-09T19:35:23.095Z,17.90
2018-07-09T19:37:51.339Z,17.90
2018-07-09T19:40:25.529Z,17.80
2018-07-09T19:45:23.393Z,17.80
2018-07-09T19:50:19.673Z,17.70
2018-07-09T19:55:16.064Z,17.60
2018-07-09T19:57:44.100Z,17.60
2018-07-09T20:00:12.104Z,17.60
2018-07-09T20:07:37.602Z,17.50
2018-07-09T20:10:10.801Z,17.50
2018-07-09T20:12:45.026Z,17.50
2018-07-09T20:15:17.924Z,17.40
2018-07-09T20:17:46.590Z,17.40
2018-07-09T20:20:14.050Z,17.30
2018-07-09T20:22:41.555Z,17.30
2018-07-09T20:25:09.040Z,17.30
2018-07-09T20:27:36.540Z,17.30
2018-07-09T20:30:04.084Z,17.20
2018-07-09T20:32:31.628Z,17.20
2018-07-09T20:37:26.843Z,17.10
2018-07-09T20:39:54.322Z,17.00
2018-07-09T20:42:21.853Z,17.00
2018-07-09T20:44:49.318Z,16.90
2018-07-09T20:49:44.632Z,16.80
2018-07-09T20:52:12.176Z,16.80
2018-07-09T20:54:41.300Z,16.70
2018-07-09T20:59:37.659Z,16.60
2018-07-09T21:02:05.339Z,16.60
2018-07-09T21:04:33.309Z,16.50
2018-07-09T21:07:02.159Z,16.50
2018-07-09T21:09:30.638Z,16.40
2018-07-09T21:11:58.758Z,16.40
2018-07-09T21:14:26.316Z,16.40
2018-07-09T21:16:54.875Z,16.30
2018-07-09T21:19:22.462Z,16.20
2018-07-09T21:21:50.268Z,16.20
2018-07-09T21:24:17.872Z,16.10
2018-07-09T21:26:45.414Z,16.10
2018-07-09T21:31:40.796Z,16.00
2018-07-09T21:34:08.373Z,16.00
2018-07-09T21:36:35.905Z,16.00
2018-07-09T21:39:04.966Z,15.90
2018-07-09T21:41:33.387Z,15.90
2018-07-09T21:44:00.952Z,15.90
2018-07-09T21:46:28.531Z,15.80
2018-07-09T21:48:56.115Z,15.80
2018-07-09T21:53:51.598Z,15.80
2018-07-09T21:56:19.115Z,15.70
2018-07-09T21:58:46.697Z,15.70
2018-07-09T22:01:14.317Z,15.60
2018-07-09T22:03:41.881Z,15.60
2018-07-09T22:06:09.412Z,15.60
2018-07-09T22:08:36.912Z,15.50
2018-07-09T22:11:04.474Z,15.50
2018-07-09T22:13:31.974Z,15.50
2018-07-09T22:15:59.950Z,15.50
2018-07-09T22:18:27.544Z,15.40
2018-07-09T22:20:55.975Z,15.40
2018-07-09T22:23:23.505Z,15.40
2018-07-09T22:25:51.097Z,15.40
2018-07-09T22:28:18.717Z,15.40
2018-07-09T22:30:48.284Z,15.30
2018-07-09T22:33:17.050Z,15.30
2018-07-09T22:35:45.809Z,15.30
2018-07-09T22:38:14.565Z,15.30
2018-07-09T22:43:22.979Z,15.20
2018-07-09T22:48:20.228Z,15.20
2018-07-09T22:50:49.035Z,15.20
2018-07-09T22:53:17.736Z,15.20
2018-07-09T22:58:20.351Z,15.20
2018-07-09T23:00:49.059Z,15.20
2018-07-09T23:03:17.773Z,15.30
2018-07-09T23:05:47.551Z,15.30
2018-07-09T23:08:16.145Z,15.30
2018-07-09T23:14:03.644Z,15.30
2018-07-09T23:16:46.509Z,15.30
2018-07-09T23:19:28.344Z,15.30
2018-07-09T23:24:29.758Z,15.30
2018-07-09T23:26:57.668Z,15.30
2018-07-09T23:29:25.387Z,15.30
2018-07-09T23:31:52.829Z,15.30
2018-07-09T23:34:20.410Z,15.30
2018-07-09T23:36:47.956Z,15.30
2018-07-09T23:39:15.426Z,15.30
2018-07-09T23:41:42.961Z,15.30
2018-07-09T23:44:10.424Z,15.30
2018-07-09T23:46:38.366Z,15.30
2018-07-09T23:51:33.566Z,15.30
2018-07-09T23:54:01.026Z,15.30
2018-07-09T23:57:09.153Z,15.30
2018-07-09T23:59:50.218Z,15.30
